KPBI/PBI METAR and TAF weather

Enter ICAO airport designator
Station Type Date Time Source
KPBI METAR 2019/12/12 08:53 UTC NOAA

KPBI 120853Z 08010KT 10SM FEW021 SCT043 SCT060 24/20 A3016 RMK AO2 SLP212 T02440200 57010 $


Station Type Date Time Source
KPBI Decoded METAR 2019/12/12 08:53 UTC NOAA

PALM BEACH INTERNATIONAL, FL, United States (KPBI) 26-41N 80-06W 6M
Dec 12, 2019 - 03:53 AM EST / 2019.12.12 0853 UTC
Wind: from the E (080 degrees) at 12 MPH (10 KT):0
Visibility: 10 mile(s):0
Sky conditions: partly cloudy
Temperature: 75.9 F (24.4 C)
Dew Point: 68.0 F (20.0 C)
Relative Humidity: 76%
Pressure (altimeter): 30.16 in. Hg (1021 hPa)
Pressure tendency: 0.03 inches (1.0 hPa) lower than three hours ago
ob: KPBI 120853Z 08010KT 10SM FEW021 SCT043 SCT060 24/20 A3016 RMK AO2 SLP212 T02440200 57010
cycle: 9

Station Type Date Time Source
KPBI TAF 2019/12/12 09:54 UTC NOAA

TAF
AMD KPBI 120852Z 1209/1306 07007KT P6SM VCSH SCT025 BKN060 BKN100
FM121500 08011KT P6SM VCSH SCT030 BKN040
FM121800 09012KT P6SM VCSH SCT025 BKN035 BKN100 PROB30 1218/1224 VRB15G25KT 3SM SHRA BKN025
FM130000 10010KT P6SM SCT030 BKN060 BKN100

Example: see airport list